Newman, Illinois
Current Conditions -  °F | °C
As of 4:35 AM on Monday 26 Jan 2015 (Local Time) from KPRG Reporting Station
Overcast Overcast  
Wind Chill: 28°   Ceiling: 1700
Heat Index: 28°   Visibility: 10mi
Dew Point: 23°   Wind: 3mph
Humidity: 84%   Direction: 40°NE
Pressure: 29.97"   Gusts: NA
Location:  39.8°N, 87.99°W
Report Text: KPRG 261035Z AUTO 04003KT 10SM BKN017 OVC026 M02/M05 A2997 RMK AO2 T10251048
Loading
Personal Weather Stations






























Interactive Weather Map New forecast layout! Learn more

10-Day Weather Forecast

Advertisements
Track Severe Weather on mobile